Main page
METAR-TAF:

METAR-TAF

Airports :

Yüksekova, Turkey

Hakkari–Yüksekova Airport

latitude: 37-33-06N, longitude: 44-14-01E, elevation: 1950 m

Current weather observation

The report was made 4 hours and 28 minutes ago, at 12:50 UTC
Wind 6 kt from the Southeast, varying between East and South
Temperature 23°C
Humidity 36%
Pressure 1017 hPa
Visibility 10 km or more
Few clouds at a height of 4000 ft

METAR: LTCW 231250Z 14006KT 100V190 9999 FEW040 23/07 Q1017

Time: 20:18 (17:18 UTC)

Forecast

The report was made 3 hours and 38 minutes ago, at 13:40 UTC
Forecast valid from 23 at 15 UTC to 23 at 24 UTC
Wind 2 kt from variable directions
Visibility 10 km or more
Few clouds at a height of 4000 ft
Becoming
from 23 at 16 UTC to 23 at 18 UTC
Visibility 10 km or more
no clouds below 1500 m and no cumulonimbus

TAF: LTCW 231340Z 2315/2324 VRB02KT 9999 FEW040 BECMG 2316/2318 CAVOK

Weather observations and forecasts of more than 4000 airports (METAR and TAF reports).

The available stations are represented by yellow and red dots on the map.

Hover mouse over dot to see the name of the station.

Then click to see weather observations and forecasts.

To change the map : click on the green buttons with a black cross to zoom in, on the green button with a dash to zoom out, or on the green arrows for adjacent maps.


METAR-TAF: